CTSO2: Bird Creek At Catoosa

Data processed at Fri Dec 08 2017 23:31


All information presented herein is the property of the government of the United States of America and may be revised or deleted at any time without prior notice.
Dissemination of this information without the expressed written consent of the Public Affairs Office, Tulsa District U.S. Army Corps of Engineers is strictly prohibited.
These data are gathered electronically and, as presented, have not undergone any form of quality control. These data are not guaranteed to be valid or correct.
Go to home page.
Go to station list.

Upstream stations:

Downstream station:
Previous Day
Next Day
Current Day
    
SHEF ID:       CTSO2     Bird Ck at State Highway 266 nea
STATION TYPE:  

                STAGE  STAGE(2)  RIV-FLOW  WTR-TEMP   DIS-OXY        PH   CONDUCT  BAT-LOAD
                   ft        ft       cfs         F      mg/l        su   umho/cm      volt
              Ccp-Rev   Ccp-Rev   Ccp-Rev   Ccp-Rev   Ccp-Rev   Ccp-Rev   Ccp-Rev   Ccp-Rev
(US/Central)
12/06 00:00      3.99      3.91       113     54.05      9.40      7.80       462     12.73
12/06 01:00      3.98      3.91       111     53.67      9.42      7.80       457     12.65
12/06 02:00      3.98      3.93       111     53.31      9.47      7.80       454     12.65
12/06 03:00      3.98      3.95       111     53.01      9.55      7.81       447     12.65
12/06 04:00      3.95      3.94       106     52.75      9.63      7.81       448     12.65
12/06 05:00      3.97      3.91       109     52.61      9.68      7.82       451     12.57
12/06 06:00      3.92      3.85       101     52.48      9.72      7.81       455     12.57
12/06 07:00      3.90      3.82        98     52.43      9.74      7.81       460     12.57
12/06 08:00      3.88      3.79        94     52.45      9.81      7.82       465     12.49
12/06 09:00      3.88      3.77        94     52.59      9.91      7.83       469     13.68
12/06 10:00      3.89      3.80        96     52.68      9.99      7.84       477     13.92
12/06 11:00      3.89      3.82        96     52.74     10.05      7.85       488     14.40
12/06 12:00      3.90      3.82        98     52.72     10.14      7.86       498     13.92
12/06 13:00      3.92      3.84       101     52.68     10.22      7.87       496     13.84
12/06 14:00      3.94      3.88       104     52.68     10.31      7.88       494     13.29
12/06 15:00      3.96      3.92       108     52.72     10.39      7.89       488     12.97
12/06 16:00      3.99      3.89       113     52.81     10.41      7.90       485     12.89
12/06 17:00      3.99      3.79       113     52.88     10.45      7.90       484     12.89
12/06 18:00      3.95      3.75       106     52.90     10.46      7.90       483     12.81
12/06 19:00      3.95      3.81       106     52.90     10.42      7.89       484     12.81
12/06 20:00      3.91      3.82        99     52.90     10.34      7.88       486     12.81
12/06 21:00      3.94      3.85       104     52.84     10.24      7.86       488     12.73
12/06 22:00      3.94      3.87       104     52.66     10.17      7.85       488     12.73
12/06 23:00      3.96      3.91       108     52.36     10.11      7.84       485     12.73